Latest Weather Observations for Low Rocky Point

IDT60801

Issued at 4:02 am EST Friday 22 June 2018 (issued every 10 minutes, with the page automatically refreshed every 10 minutes)

About weather observations | Map of weather stations | Latest weather observations for TAS | Other Formats
Station Details ID: 097080 Name: LOW ROCKY POINT Lat: -42.98 Lon: 145.50 Height: 34.0 m
Data from the previous 72 hours. | See also: Recent months at Low Rocky Point
Date/Time
EST
Temp
°C
App
Temp
°C
Dew
Point
°C
Rel
Hum
%
Delta-T
°C
Wind Press
QNH
hPa
Press
MSL
hPa
Rain since
9am
mm
Dir  Spd
km/h
Gust
km/h
Spd
kts
Gust
kts
22/04:00am 8.7 3.8 8.6 99 0.0 N 24 35 13 19 1022.2 1022.2 -
22/03:30am 8.5 3.6 8.4 99 0.0 N 24 32 13 17 1022.4 1022.4 -
22/03:00am 8.5 4.0 8.4 99 0.0 N 22 32 12 17 1022.9 1023.0 5.0
22/02:30am 8.5 4.0 8.4 99 0.0 N 22 32 12 17 1023.1 1023.1 -
22/02:00am 8.5 3.6 8.4 99 0.0 N 24 33 13 18 1023.1 1023.2 5.0
22/01:30am 8.4 3.5 8.3 99 0.0 N 24 28 13 15 1023.3 1023.3 -
22/01:00am 8.7 4.2 8.6 99 0.0 N 22 33 12 18 1023.5 1023.6 5.0
22/12:30am 9.1 5.1 9.0 99 0.0 NNW 20 30 11 16 1023.7 1023.7 -
22/12:00am 8.4 3.8 8.0 97 0.2 N 22 30 12 16 1023.8 1023.9 5.0
 
Date/Time
EST
Temp
°C
App
Temp
°C
Dew
Point
°C
Rel
Hum
%
Delta-T
°C
Wind Press
QNH
hPa
Press
MSL
hPa
Rain since
9am
mm
Dir  Spd
km/h
Gust
km/h
Spd
kts
Gust
kts
21/11:30pm 8.7 4.0 7.9 95 0.4 N 22 30 12 16 1023.9 1023.9 -
21/11:00pm 8.7 3.9 7.5 92 0.6 N 22 28 12 15 1024.2 1024.3 5.0
21/10:30pm 9.1 4.9 7.5 90 0.8 N 19 24 10 13 1024.2 1024.2 -
21/10:00pm 10.7 3.6 9.6 93 0.6 NW 37 46 20 25 1024.4 1024.5 5.0
21/09:52pm 10.5 4.4 9.7 95 0.4 NNW 32 46 17 25 1024.4 1024.4 -
21/09:30pm 8.8 4.5 7.9 94 0.4 N 20 30 11 16 1024.6 1024.6 -
21/09:00pm 8.1 3.5 6.7 91 0.6 N 20 24 11 13 1024.6 1024.7 5.0
21/08:30pm 10.8 4.9 8.9 88 0.9 NW 30 43 16 23 1024.6 1024.6 -
21/08:00pm 9.7 3.2 8.3 91 0.7 NW 32 41 17 22 1024.8 1024.9 5.0
21/07:30pm 8.3 3.9 6.4 88 0.9 N 19 24 10 13 1024.8 1024.8 -
21/07:00pm 10.1 4.6 7.5 84 1.2 NW 26 33 14 18 1024.8 1024.9 5.0
21/06:30pm 10.7 4.4 7.2 79 1.7 NW 30 35 16 19 1024.7 1024.7 -
21/06:00pm 10.0 4.7 6.9 81 1.5 NW 24 30 13 16 1024.8 1024.9 5.0
21/05:00pm 11.0 4.9 6.7 75 2.0 NW 28 39 15 21 1024.4 1024.5 0.0
21/04:30pm 10.7 4.6 6.6 76 1.9 NW 28 35 15 19 1024.5 1024.5 0.0
21/04:00pm 10.8 5.5 6.9 77 1.8 NW 24 33 13 18 1024.6 1024.7 0.0
21/03:30pm 10.4 6.4 6.5 77 1.8 NW 17 20 9 11 1024.7 1024.7 0.0
21/03:00pm 11.0 5.2 6.4 73 2.1 WNW 26 44 14 24 1024.5 1024.6 0.0
21/02:30pm 12.3 7.0 5.0 61 3.4 NW 22 30 12 16 1024.4 1024.4 0.0
21/02:00pm 11.8 5.6 4.5 61 3.3 WNW 26 30 14 16 1024.5 1024.6 0.0
21/01:30pm 12.1 7.3 5.5 64 3.1 WNW 20 26 11 14 1024.6 1024.6 0.0
21/01:00pm 12.1 6.3 4.6 60 3.4 WNW 24 30 13 16 1024.6 1024.7 0.0
21/12:30pm 12.4 6.8 5.3 62 3.3 WNW 24 30 13 16 1024.9 1024.9 0.0
21/12:00pm 11.9 6.3 5.3 64 3.0 WNW 24 30 13 16 1025.1 1025.2 0.0
21/11:30am 11.6 5.1 4.8 63 3.1 WNW 28 33 15 18 1025.3 1025.4 0.0
21/11:00am 11.6 5.5 5.0 64 3.0 W 26 33 14 18 1025.6 1025.7 0.0
21/10:30am 10.7 4.2 4.8 67 2.7 WNW 28 33 15 18 1025.6 1025.7 0.0
21/10:00am 10.3 3.4 4.5 67 2.6 WNW 30 37 16 20 1025.6 1025.7 0.0
21/09:30am 10.8 4.5 5.6 70 2.4 WNW 28 35 15 19 1025.4 1025.5 0.0
21/09:00am 10.3 3.2 5.3 71 2.3 WNW 32 39 17 21 1025.3 1025.4 4.6
21/08:30am 10.0 2.6 4.8 70 2.3 WNW 33 43 18 23 1025.1 1025.2 4.6
21/08:00am 10.3 3.8 6.6 78 1.7 W 30 39 16 21 1024.8 1024.9 4.6
21/07:30am 10.0 3.5 6.7 80 1.5 W 30 39 16 21 1024.7 1024.7 4.6
21/07:00am 10.0 3.3 7.3 83 1.3 W 32 39 17 21 1024.5 1024.6 4.6
21/06:30am 9.9 4.0 7.7 86 1.1 W 28 35 15 19 1024.1 1024.1 4.6
21/06:00am 9.5 4.8 7.9 90 0.8 W 22 26 12 14 1023.9 1024.0 4.6
21/05:30am 10.3 4.6 8.4 88 0.9 WNW 28 39 15 21 1023.8 1023.8 4.6
21/05:00am 10.0 4.3 8.4 90 0.8 WNW 28 35 15 19 1023.5 1023.6 4.6
21/04:30am 9.8 3.8 8.7 93 0.5 W 30 39 16 21 1023.3 1023.3 4.6
21/04:00am 9.7 3.3 8.6 93 0.5 WSW 32 46 17 25 1023.3 1023.4 4.6
21/03:30am 10.6 5.2 9.4 92 0.6 WNW 28 33 15 18 1023.1 1023.1 3.2
21/03:00am 10.6 5.7 9.8 95 0.4 WNW 26 33 14 18 1023.1 1023.2 3.2
21/02:30am 10.4 5.5 9.9 97 0.3 W 26 32 14 17 1023.1 1023.1 3.2
21/02:00am 10.2 4.9 10.0 99 0.1 W 28 35 15 19 1022.9 1023.0 3.2
21/01:30am 8.6 3.6 8.2 97 0.2 N 24 37 13 20 1022.7 1022.7 2.6
21/01:17am 8.9 2.8 8.3 96 0.3 NNW 30 48 16 26 1022.7 1022.7 2.0
21/01:00am 8.9 2.3 7.7 92 0.6 NNW 32 46 17 25 1022.6 1022.7 1.6
21/12:51am 9.0 3.1 7.5 90 0.7 NNW 28 46 15 25 1022.7 1022.7 1.0
21/12:30am 8.9 3.6 6.7 86 1.0 N 24 33 13 18 1022.6 1022.6 0.6
21/12:00am 9.8 2.9 6.5 80 1.5 NNW 32 43 17 23 1023.0 1023.1 0.0
 
Date/Time
EST
Temp
°C
App
Temp
°C
Dew
Point
°C
Rel
Hum
%
Delta-T
°C
Wind Press
QNH
hPa
Press
MSL
hPa
Rain since
9am
mm
Dir  Spd
km/h
Gust
km/h
Spd
kts
Gust
kts
20/11:30pm 10.6 4.0 6.0 73 2.1 NNW 30 41 16 22 1023.1 1023.1 0.0
20/11:05pm 10.9 3.8 5.4 69 2.5 NNW 32 52 17 28 1022.9 1022.9 0.0
20/11:00pm 10.6 4.2 5.2 69 2.5 NNW 28 35 15 19 1022.9 1023.0 0.0
20/10:30pm 10.2 4.1 5.0 70 2.4 N 26 37 14 20 1022.7 1022.7 0.0
20/10:00pm 10.1 4.0 4.7 69 2.4 N 26 35 14 19 1022.8 1022.9 0.0
20/09:30pm 10.4 3.6 5.0 69 2.4 N 30 41 16 22 1022.8 1022.8 0.0
20/09:00pm 10.5 3.3 5.1 69 2.4 N 32 44 17 24 1022.9 1023.0 0.0
20/08:30pm 10.3 3.9 5.3 71 2.3 N 28 41 15 22 1022.9 1022.9 0.0
20/08:00pm 10.8 5.2 5.3 69 2.5 N 24 39 13 21 1022.8 1022.9 0.0
20/07:43pm 10.9 4.1 5.2 68 2.6 N 30 48 16 26 1022.8 1022.8 0.0
20/07:30pm 10.9 3.7 5.0 67 2.7 N 32 46 17 25 1022.6 1022.6 0.0
20/07:00pm 11.1 4.3 5.2 67 2.7 NNW 30 44 16 24 1022.8 1022.9 0.0
20/06:30pm 11.6 3.3 6.1 69 2.6 NNW 39 57 21 31 1022.8 1022.8 0.0
20/06:22pm 11.8 4.3 6.5 70 2.5 NNW 35 57 19 31 1022.9 1022.9 0.0
20/06:00pm 11.8 4.4 6.7 71 2.4 NNW 35 52 19 28 1023.0 1023.1 0.0
20/05:30pm 12.1 3.7 7.2 72 2.4 NNW 41 59 22 32 1022.8 1022.8 0.0
20/05:00pm 12.5 3.6 7.8 73 2.3 NNW 44 63 24 34 1022.5 1022.6 0.0
20/04:59pm 12.6 3.8 8.1 74 2.2 NNW 44 63 24 34 1022.5 1022.5 0.0
20/04:30pm 12.6 2.0 8.3 75 2.1 NW 54 65 29 35 1022.4 1022.4 0.0
20/04:00pm 12.7 2.6 8.8 77 1.9 NW 52 65 28 35 1022.4 1022.5 0.0
20/03:30pm 12.8 5.2 8.9 77 2.0 NNW 39 56 21 30 1022.4 1022.4 0.0
20/03:28pm 12.9 6.1 9.2 78 1.9 NNW 35 56 19 30 1022.4 1022.4 0.0
20/03:16pm 12.5 8.2 9.3 81 1.6 NNW 22 46 12 25 1022.6 1022.6 0.0
20/03:00pm 12.0 8.9 8.7 80 1.6 N 15 22 8 12 1022.7 1022.8 0.0
20/02:30pm 12.2 9.4 8.7 79 1.7 N 13 17 7 9 1022.7 1022.7 0.0
20/02:00pm 12.1 8.8 8.2 77 1.9 N 15 19 8 10 1022.8 1022.9 0.0
20/01:30pm 12.4 8.7 7.9 74 2.2 N 17 22 9 12 1023.3 1023.3 0.0
20/01:00pm 12.5 8.1 7.6 72 2.4 N 20 30 11 16 1023.3 1023.4 0.0
20/12:30pm 11.6 7.7 6.9 73 2.2 NNE 17 26 9 14 1023.6 1023.6 0.0
20/12:00pm 10.4 5.9 6.0 74 2.0 NE 19 26 10 14 1024.1 1024.2 0.0
20/11:30am 9.7 4.8 5.3 74 2.0 NE 20 28 11 15 1024.7 1024.7 0.0
20/11:00am 9.4 4.5 5.0 74 2.0 NE 20 28 11 15 1025.0 1025.1 0.0
20/10:30am 9.1 4.2 4.9 75 1.9 NE 20 28 11 15 1025.3 1025.4 0.0
20/10:00am 8.2 2.8 4.4 77 1.7 NE 22 30 12 16 1025.4 1025.5 0.0
20/09:30am 7.0 1.4 3.6 79 1.4 NE 22 30 12 16 1025.5 1025.6 0.0
20/09:00am 6.4 0.4 3.2 80 1.3 NE 24 30 13 16 1025.6 1025.7 0.0
20/08:30am 5.4 -1.1 2.4 81 1.2 NE 26 32 14 17 1025.7 1025.8 0.0
20/08:00am 5.6 -1.3 2.4 80 1.3 NE 28 32 15 17 1025.6 1025.7 0.0
20/07:30am 5.1 -1.5 2.1 81 1.2 NE 26 33 14 18 1025.4 1025.5 0.0
20/07:00am 5.0 -1.2 2.2 82 1.1 NE 24 30 13 16 1025.4 1025.5 0.0
20/06:30am 4.7 -1.9 1.9 82 1.1 NE 26 33 14 18 1025.6 1025.7 0.0
20/06:00am 4.4 -1.9 1.6 82 1.1 NE 24 30 13 16 1025.8 1025.9 0.0
20/05:30am 4.7 -1.5 1.9 82 1.1 NE 24 26 13 14 1025.9 1026.0 0.0
20/05:00am 4.8 -1.4 2.0 82 1.1 NE 24 26 13 14 1025.9 1026.0 0.0
20/04:30am 4.8 -1.1 2.0 82 1.1 NE 22 26 12 14 1025.9 1026.0 0.0
20/04:00am 4.9 -0.9 2.4 84 1.0 NNE 22 26 12 14 1026.0 1026.1 0.0
20/03:30am 5.0 -0.3 2.9 86 0.9 NNE 20 24 11 13 1026.2 1026.3 0.0
20/03:00am 4.9 -0.4 2.8 86 0.9 NNE 20 22 11 12 1026.4 1026.5 0.0
20/02:30am 5.0 -0.1 3.0 87 0.8 N 19 20 10 11 1026.3 1026.4 0.0
20/02:00am 5.1 0.0 3.0 86 0.9 N 19 20 10 11 1026.2 1026.3 0.0
20/01:30am 5.2 -0.1 3.1 86 0.9 NNE 20 22 11 12 1026.2 1026.3 0.0
20/01:00am 5.2 -0.1 3.1 86 0.9 NNE 20 24 11 13 1026.3 1026.4 0.0
20/12:30am 5.8 0.2 3.5 85 1.0 NNE 22 26 12 14 1026.3 1026.4 0.0
20/12:00am 5.7 0.1 3.5 86 0.9 NE 22 26 12 14 1026.5 1026.6 0.0
 
Date/Time
EST
Temp
°C
App
Temp
°C
Dew
Point
°C
Rel
Hum
%
Delta-T
°C
Wind Press
QNH
hPa
Press
MSL
hPa
Rain since
9am
mm
Dir  Spd
km/h
Gust
km/h
Spd
kts
Gust
kts
19/11:30pm 5.5 -0.1 3.7 88 0.8 NE 22 26 12 14 1026.8 1026.9 0.0
19/11:00pm 5.2 -0.4 3.2 87 0.8 NE 22 26 12 14 1026.8 1026.9 0.0
19/10:30pm 5.4 -0.6 3.3 86 0.9 NE 24 26 13 14 1027.1 1027.2 0.0
19/10:00pm 6.0 0.1 3.7 85 1.0 NE 24 32 13 17 1027.1 1027.2 0.0
19/09:30pm 6.1 1.0 3.9 86 0.9 NNE 20 28 11 15 1027.2 1027.3 0.0
19/09:00pm 6.4 0.9 4.1 85 1.0 NNE 22 26 12 14 1027.4 1027.5 0.0
19/08:30pm 6.5 1.6 4.3 86 0.9 NE 19 20 10 11 1027.7 1027.8 0.0
19/08:00pm 6.2 1.1 4.0 86 0.9 NE 20 24 11 13 1028.0 1028.1 0.0
19/07:30pm 5.9 0.3 3.4 84 1.0 NE 22 26 12 14 1028.2 1028.3 0.0
19/07:00pm 6.8 1.3 3.9 82 1.2 NE 22 26 12 14 1028.5 1028.6 0.0
19/06:30pm 6.9 1.7 3.7 80 1.4 NNE 20 22 11 12 1028.7 1028.8 0.0
19/06:00pm 8.1 3.3 4.5 78 1.6 N 19 20 10 11 1028.8 1028.9 0.0
19/05:30pm 8.7 3.9 4.9 77 1.7 N 19 20 10 11 1028.7 1028.8 0.0
19/05:00pm 9.0 4.6 5.0 76 1.8 N 17 19 9 10 1028.6 1028.7 0.0
19/04:30pm 10.6 5.0 5.6 71 2.3 NW 24 28 13 15 1028.5 1028.6 0.0
19/04:00pm 10.9 5.4 5.9 71 2.3 NW 24 30 13 16 1028.3 1028.4 0.0
19/03:30pm 11.4 5.8 5.3 66 2.8 NW 24 30 13 16 1028.5 1028.6 0.0
19/03:00pm 12.1 8.4 6.4 68 2.7 NNW 15 20 8 11 1028.2 1028.3 0.0
19/02:30pm 12.2 8.2 6.7 69 2.6 NNW 17 20 9 11 1028.4 1028.5 0.0
19/02:00pm 12.2 7.9 7.1 71 2.4 NW 19 24 10 13 1028.4 1028.5 0.0
19/01:30pm 12.0 7.1 6.9 71 2.4 NW 22 28 12 15 1028.6 1028.7 0.0
19/01:00pm 11.8 6.9 6.9 72 2.3 NNW 22 32 12 17 1028.7 1028.8 0.0
19/12:30pm 11.8 7.6 7.3 74 2.2 NNW 19 24 10 13 1028.6 1028.7 0.0
19/12:00pm 11.4 7.1 7.7 78 1.8 N 20 28 11 15 1028.9 1029.0 0.0
19/11:30am 10.7 7.0 7.9 83 1.4 N 17 24 9 13 1029.2 1029.3 0.0
19/11:00am 10.2 6.6 8.3 88 0.9 N 17 24 9 13 1029.5 1029.6 0.0
19/10:30am 9.0 5.3 7.8 92 0.6 N 17 22 9 12 1029.6 1029.7 0.0
19/10:00am 7.6 3.7 6.9 95 0.3 N 17 22 9 12 1029.7 1029.8 0.0
19/09:30am 5.8 1.6 5.5 98 0.1 NNE 17 20 9 11 1029.8 1029.9 0.0
19/09:00am 4.6 -0.2 4.5 99 0.0 NNE 19 24 10 13 1029.7 1029.8 1.4
19/08:30am 3.8 -1.8 3.7 99 0.0 NNE 22 28 12 15 1029.6 1029.7 1.4
19/08:00am 3.1 -3.0 3.0 99 0.0 NNE 24 28 13 15 1029.6 1029.7 1.4
19/07:30am 3.5 -2.5 3.4 99 0.0 NNE 24 28 13 15 1029.3 1029.4 1.4
19/07:00am 3.6 -2.7 3.5 99 0.0 NNE 26 32 14 17 1029.1 1029.2 1.4
19/06:30am 3.9 -2.4 3.8 99 0.0 NNE 26 32 14 17 1029.2 1029.3 1.4
19/06:00am 3.8 -2.1 3.7 99 0.0 NE 24 30 13 16 1029.4 1029.5 1.4
19/05:30am 4.2 -1.3 4.1 99 0.0 NE 22 28 12 15 1029.4 1029.5 1.4
19/05:00am 4.1 -1.4 4.0 99 0.0 NE 22 28 12 15 1029.4 1029.5 1.4
19/04:30am 4.9 -0.1 4.8 99 0.0 NE 20 26 11 14 1029.3 1029.4 1.4

Other Formats:

Comma delimited format used in spreadsheet applications
http://www.bom.gov.au/fwo/IDT60801/IDT60801.95961.axf

JavaScript Object Notation format (JSON) in row-major order
http://www.bom.gov.au/fwo/IDT60801/IDT60801.95961.json